sensor_id;sensor_type;location;lat;lon;timestamp;P1;durP1;ratioP1;P2;durP2;ratioP2
19889;SDS011;10107;51.198;6.824;2023-08-24T00:01:18;7.07;;;5.10;;
19889;SDS011;10107;51.198;6.824;2023-08-24T00:05:20;7.95;;;5.30;;
19889;SDS011;10107;51.198;6.824;2023-08-24T00:09:23;9.20;;;5.87;;
19889;SDS011;10107;51.198;6.824;2023-08-24T00:13:24;10.27;;;6.10;;
19889;SDS011;10107;51.198;6.824;2023-08-24T00:17:27;10.20;;;6.20;;
19889;SDS011;10107;51.198;6.824;2023-08-24T00:21:29;8.10;;;5.78;;
19889;SDS011;10107;51.198;6.824;2023-08-24T00:25:31;8.50;;;5.30;;
19889;SDS011;10107;51.198;6.824;2023-08-24T00:29:32;8.60;;;5.70;;
19889;SDS011;10107;51.198;6.824;2023-08-24T00:33:35;9.20;;;5.82;;
19889;SDS011;10107;51.198;6.824;2023-08-24T00:37:37;10.30;;;5.83;;
19889;SDS011;10107;51.198;6.824;2023-08-24T00:41:39;8.13;;;5.53;;
19889;SDS011;10107;51.198;6.824;2023-08-24T00:45:41;10.77;;;5.55;;
19889;SDS011;10107;51.198;6.824;2023-08-24T00:49:45;8.73;;;6.20;;
19889;SDS011;10107;51.198;6.824;2023-08-24T00:53:46;9.20;;;5.95;;
19889;SDS011;10107;51.198;6.824;2023-08-24T00:57:48;7.90;;;5.20;;
19889;SDS011;10107;51.198;6.824;2023-08-24T01:01:51;8.68;;;5.30;;
19889;SDS011;10107;51.198;6.824;2023-08-24T01:05:55;9.27;;;5.72;;
19889;SDS011;10107;51.198;6.824;2023-08-24T01:09:57;9.10;;;5.20;;
19889;SDS011;10107;51.198;6.824;2023-08-24T01:14:13;8.15;;;5.13;;
19889;SDS011;10107;51.198;6.824;2023-08-24T01:18:22;9.25;;;5.40;;
19889;SDS011;10107;51.198;6.824;2023-08-24T01:22:32;8.63;;;4.60;;
19889;SDS011;10107;51.198;6.824;2023-08-24T01:26:36;6.35;;;5.10;;
19889;SDS011;10107;51.198;6.824;2023-08-24T01:30:38;8.95;;;4.85;;
19889;SDS011;10107;51.198;6.824;2023-08-24T01:34:40;7.53;;;4.70;;
19889;SDS011;10107;51.198;6.824;2023-08-24T01:38:42;6.82;;;4.55;;
19889;SDS011;10107;51.198;6.824;2023-08-24T01:42:48;6.57;;;4.45;;
19889;SDS011;10107;51.198;6.824;2023-08-24T01:46:53;5.97;;;4.38;;
19889;SDS011;10107;51.198;6.824;2023-08-24T01:50:55;4.57;;;3.28;;
19889;SDS011;10107;51.198;6.824;2023-08-24T01:55:00;6.53;;;4.13;;
19889;SDS011;10107;51.198;6.824;2023-08-24T01:59:03;7.07;;;4.80;;
19889;SDS011;10107;51.198;6.824;2023-08-24T02:03:05;6.77;;;4.37;;
19889;SDS011;10107;51.198;6.824;2023-08-24T02:07:06;8.35;;;4.68;;
19889;SDS011;10107;51.198;6.824;2023-08-24T02:11:08;6.95;;;4.75;;
19889;SDS011;10107;51.198;6.824;2023-08-24T02:15:11;6.35;;;4.13;;
19889;SDS011;10107;51.198;6.824;2023-08-24T02:19:13;7.27;;;4.70;;
19889;SDS011;10107;51.198;6.824;2023-08-24T02:23:14;7.57;;;4.45;;
19889;SDS011;10107;51.198;6.824;2023-08-24T02:27:16;6.22;;;4.22;;
19889;SDS011;10107;51.198;6.824;2023-08-24T02:31:19;5.70;;;4.00;;
19889;SDS011;10107;51.198;6.824;2023-08-24T02:35:20;7.47;;;4.93;;
19889;SDS011;10107;51.198;6.824;2023-08-24T02:39:23;5.28;;;4.65;;
19889;SDS011;10107;51.198;6.824;2023-08-24T02:43:25;6.80;;;4.43;;
19889;SDS011;10107;51.198;6.824;2023-08-24T02:47:28;7.22;;;4.70;;
19889;SDS011;10107;51.198;6.824;2023-08-24T02:51:29;6.43;;;4.80;;
19889;SDS011;10107;51.198;6.824;2023-08-24T02:55:32;5.30;;;4.30;;
19889;SDS011;10107;51.198;6.824;2023-08-24T02:59:34;6.00;;;4.25;;
19889;SDS011;10107;51.198;6.824;2023-08-24T03:03:37;5.75;;;4.63;;
19889;SDS011;10107;51.198;6.824;2023-08-24T03:07:39;4.97;;;3.10;;
19889;SDS011;10107;51.198;6.824;2023-08-24T03:11:40;6.75;;;4.10;;
19889;SDS011;10107;51.198;6.824;2023-08-24T03:15:42;6.22;;;4.13;;
19889;SDS011;10107;51.198;6.824;2023-08-24T03:19:47;6.00;;;4.30;;
19889;SDS011;10107;51.198;6.824;2023-08-24T03:23:48;5.45;;;4.05;;
19889;SDS011;10107;51.198;6.824;2023-08-24T03:27:50;5.82;;;4.10;;
19889;SDS011;10107;51.198;6.824;2023-08-24T03:31:51;6.82;;;4.22;;
19889;SDS011;10107;51.198;6.824;2023-08-24T03:35:54;6.07;;;4.10;;
19889;SDS011;10107;51.198;6.824;2023-08-24T03:39:56;4.93;;;3.90;;
19889;SDS011;10107;51.198;6.824;2023-08-24T03:43:58;5.60;;;4.00;;
19889;SDS011;10107;51.198;6.824;2023-08-24T03:47:59;4.38;;;3.80;;
19889;SDS011;10107;51.198;6.824;2023-08-24T03:52:02;4.63;;;3.88;;
19889;SDS011;10107;51.198;6.824;2023-08-24T03:56:04;4.38;;;3.65;;
19889;SDS011;10107;51.198;6.824;2023-08-24T04:00:06;5.72;;;3.92;;
19889;SDS011;10107;51.198;6.824;2023-08-24T04:04:16;6.03;;;4.15;;
19889;SDS011;10107;51.198;6.824;2023-08-24T04:08:19;4.82;;;3.88;;
19889;SDS011;10107;51.198;6.824;2023-08-24T04:12:23;4.57;;;3.85;;
19889;SDS011;10107;51.198;6.824;2023-08-24T04:16:24;4.85;;;3.75;;
19889;SDS011;10107;51.198;6.824;2023-08-24T04:20:26;6.38;;;4.70;;
19889;SDS011;10107;51.198;6.824;2023-08-24T04:24:29;5.18;;;4.18;;
19889;SDS011;10107;51.198;6.824;2023-08-24T04:28:30;5.90;;;4.57;;
19889;SDS011;10107;51.198;6.824;2023-08-24T04:32:32;6.63;;;4.43;;
19889;SDS011;10107;51.198;6.824;2023-08-24T04:36:34;7.07;;;4.75;;
19889;SDS011;10107;51.198;6.824;2023-08-24T04:40:46;6.82;;;5.00;;
19889;SDS011;10107;51.198;6.824;2023-08-24T04:44:50;6.78;;;5.00;;
19889;SDS011;10107;51.198;6.824;2023-08-24T04:48:52;11.02;;;5.65;;
19889;SDS011;10107;51.198;6.824;2023-08-24T04:52:53;9.32;;;6.15;;
19889;SDS011;10107;51.198;6.824;2023-08-24T04:56:56;8.48;;;5.18;;
19889;SDS011;10107;51.198;6.824;2023-08-24T05:00:58;8.97;;;5.80;;
19889;SDS011;10107;51.198;6.824;2023-08-24T05:04:59;9.68;;;6.25;;
19889;SDS011;10107;51.198;6.824;2023-08-24T05:09:01;8.93;;;5.50;;
19889;SDS011;10107;51.198;6.824;2023-08-24T05:13:04;9.32;;;6.05;;
19889;SDS011;10107;51.198;6.824;2023-08-24T05:17:06;7.07;;;5.70;;
19889;SDS011;10107;51.198;6.824;2023-08-24T05:21:07;8.20;;;5.07;;
19889;SDS011;10107;51.198;6.824;2023-08-24T05:25:09;7.13;;;4.85;;
19889;SDS011;10107;51.198;6.824;2023-08-24T05:29:12;10.57;;;6.18;;
19889;SDS011;10107;51.198;6.824;2023-08-24T05:33:13;5.83;;;5.13;;
19889;SDS011;10107;51.198;6.824;2023-08-24T05:37:15;9.65;;;5.32;;
19889;SDS011;10107;51.198;6.824;2023-08-24T05:41:17;11.95;;;6.38;;
19889;SDS011;10107;51.198;6.824;2023-08-24T05:45:19;8.63;;;6.28;;
19889;SDS011;10107;51.198;6.824;2023-08-24T05:49:22;8.43;;;5.20;;
19889;SDS011;10107;51.198;6.824;2023-08-24T05:53:24;7.40;;;5.07;;
19889;SDS011;10107;51.198;6.824;2023-08-24T05:57:26;11.30;;;5.78;;
19889;SDS011;10107;51.198;6.824;2023-08-24T06:01:29;7.88;;;5.25;;
19889;SDS011;10107;51.198;6.824;2023-08-24T06:05:30;10.10;;;6.23;;
19889;SDS011;10107;51.198;6.824;2023-08-24T06:09:32;9.82;;;6.07;;
19889;SDS011;10107;51.198;6.824;2023-08-24T06:13:34;6.45;;;5.20;;
19889;SDS011;10107;51.198;6.824;2023-08-24T06:17:37;9.18;;;6.00;;
19889;SDS011;10107;51.198;6.824;2023-08-24T06:21:39;7.90;;;5.37;;
19889;SDS011;10107;51.198;6.824;2023-08-24T06:25:41;7.47;;;5.07;;
19889;SDS011;10107;51.198;6.824;2023-08-24T06:29:42;7.72;;;5.38;;
19889;SDS011;10107;51.198;6.824;2023-08-24T06:33:45;10.60;;;5.70;;
19889;SDS011;10107;51.198;6.824;2023-08-24T06:37:47;8.70;;;5.30;;
19889;SDS011;10107;51.198;6.824;2023-08-24T06:41:48;6.30;;;4.50;;
19889;SDS011;10107;51.198;6.824;2023-08-24T06:45:57;8.57;;;4.45;;
19889;SDS011;10107;51.198;6.824;2023-08-24T06:50:00;6.53;;;4.15;;
19889;SDS011;10107;51.198;6.824;2023-08-24T06:54:01;6.05;;;3.67;;
19889;SDS011;10107;51.198;6.824;2023-08-24T06:58:03;6.30;;;4.00;;
19889;SDS011;10107;51.198;6.824;2023-08-24T07:02:05;4.75;;;3.70;;
19889;SDS011;10107;51.198;6.824;2023-08-24T07:06:08;4.97;;;3.70;;
19889;SDS011;10107;51.198;6.824;2023-08-24T07:10:12;5.78;;;3.20;;
19889;SDS011;10107;51.198;6.824;2023-08-24T07:14:14;4.78;;;3.50;;
19889;SDS011;10107;51.198;6.824;2023-08-24T07:18:15;6.88;;;3.83;;
19889;SDS011;10107;51.198;6.824;2023-08-24T07:22:19;4.20;;;3.10;;
19889;SDS011;10107;51.198;6.824;2023-08-24T07:26:20;5.50;;;3.00;;
19889;SDS011;10107;51.198;6.824;2023-08-24T07:30:22;4.80;;;3.42;;
19889;SDS011;10107;51.198;6.824;2023-08-24T07:34:24;4.50;;;3.33;;
19889;SDS011;10107;51.198;6.824;2023-08-24T07:38:27;4.80;;;3.30;;
19889;SDS011;10107;51.198;6.824;2023-08-24T07:42:28;5.63;;;3.25;;
19889;SDS011;10107;51.198;6.824;2023-08-24T07:46:30;6.22;;;3.25;;
19889;SDS011;10107;51.198;6.824;2023-08-24T07:50:31;4.15;;;2.70;;
19889;SDS011;10107;51.198;6.824;2023-08-24T07:54:34;4.47;;;2.97;;
19889;SDS011;10107;51.198;6.824;2023-08-24T07:58:36;5.03;;;2.80;;
19889;SDS011;10107;51.198;6.824;2023-08-24T08:02:38;3.75;;;2.90;;
19889;SDS011;10107;51.198;6.824;2023-08-24T08:06:39;3.40;;;2.65;;
19889;SDS011;10107;51.198;6.824;2023-08-24T08:26:29;5.45;;;2.70;;
19889;SDS011;10107;51.198;6.824;2023-08-24T08:30:31;3.63;;;2.78;;
19889;SDS011;10107;51.198;6.824;2023-08-24T08:34:32;4.35;;;3.10;;
19889;SDS011;10107;51.198;6.824;2023-08-24T08:38:34;4.60;;;2.85;;
19889;SDS011;10107;51.198;6.824;2023-08-24T08:42:37;4.13;;;2.67;;
19889;SDS011;10107;51.198;6.824;2023-08-24T08:46:39;4.97;;;2.85;;
19889;SDS011;10107;51.198;6.824;2023-08-24T08:50:42;3.88;;;3.00;;
19889;SDS011;10107;51.198;6.824;2023-08-24T08:54:44;4.22;;;2.90;;
19889;SDS011;10107;51.198;6.824;2023-08-24T08:58:47;3.45;;;2.58;;
19889;SDS011;10107;51.198;6.824;2023-08-24T09:02:51;5.78;;;3.00;;
19889;SDS011;10107;51.198;6.824;2023-08-24T09:06:54;4.38;;;2.83;;
19889;SDS011;10107;51.198;6.824;2023-08-24T09:10:58;5.43;;;2.88;;
19889;SDS011;10107;51.198;6.824;2023-08-24T09:15:01;4.82;;;3.05;;
19889;SDS011;10107;51.198;6.824;2023-08-24T09:19:05;3.58;;;2.95;;
19889;SDS011;10107;51.198;6.824;2023-08-24T09:23:15;5.10;;;2.80;;
19889;SDS011;10107;51.198;6.824;2023-08-24T09:27:19;6.30;;;2.90;;
19889;SDS011;10107;51.198;6.824;2023-08-24T09:31:23;5.32;;;2.72;;
19889;SDS011;10107;51.198;6.824;2023-08-24T09:35:36;4.53;;;2.83;;
19889;SDS011;10107;51.198;6.824;2023-08-24T09:39:38;2.53;;;2.33;;
19889;SDS011;10107;51.198;6.824;2023-08-24T09:43:40;4.75;;;2.70;;
19889;SDS011;10107;51.198;6.824;2023-08-24T09:47:46;3.92;;;2.67;;
19889;SDS011;10107;51.198;6.824;2023-08-24T09:51:50;5.57;;;3.00;;
19889;SDS011;10107;51.198;6.824;2023-08-24T09:55:55;5.90;;;3.17;;
19889;SDS011;10107;51.198;6.824;2023-08-24T10:00:00;4.40;;;2.90;;
19889;SDS011;10107;51.198;6.824;2023-08-24T10:04:08;4.25;;;3.20;;
19889;SDS011;10107;51.198;6.824;2023-08-24T10:08:10;3.63;;;3.05;;
19889;SDS011;10107;51.198;6.824;2023-08-24T10:12:13;4.10;;;2.90;;
19889;SDS011;10107;51.198;6.824;2023-08-24T10:16:20;4.05;;;2.70;;
19889;SDS011;10107;51.198;6.824;2023-08-24T10:24:26;3.73;;;2.83;;
19889;SDS011;10107;51.198;6.824;2023-08-24T10:28:28;4.30;;;2.85;;
19889;SDS011;10107;51.198;6.824;2023-08-24T10:32:30;4.17;;;3.07;;
19889;SDS011;10107;51.198;6.824;2023-08-24T10:36:34;3.92;;;2.95;;
19889;SDS011;10107;51.198;6.824;2023-08-24T10:40:39;5.57;;;2.92;;
19889;SDS011;10107;51.198;6.824;2023-08-24T10:44:44;4.40;;;3.00;;
19889;SDS011;10107;51.198;6.824;2023-08-24T10:48:59;4.07;;;3.10;;
19889;SDS011;10107;51.198;6.824;2023-08-24T10:53:02;3.35;;;2.95;;
19889;SDS011;10107;51.198;6.824;2023-08-24T10:57:16;6.03;;;3.58;;
19889;SDS011;10107;51.198;6.824;2023-08-24T11:01:19;3.95;;;3.05;;
19889;SDS011;10107;51.198;6.824;2023-08-24T11:05:23;4.72;;;3.00;;
19889;SDS011;10107;51.198;6.824;2023-08-24T11:09:39;5.13;;;3.10;;
19889;SDS011;10107;51.198;6.824;2023-08-24T11:18:20;4.80;;;3.13;;
19889;SDS011;10107;51.198;6.824;2023-08-24T11:22:23;3.40;;;3.08;;
19889;SDS011;10107;51.198;6.824;2023-08-24T11:30:30;4.57;;;3.25;;
19889;SDS011;10107;51.198;6.824;2023-08-24T11:34:33;4.63;;;3.13;;
19889;SDS011;10107;51.198;6.824;2023-08-24T11:38:36;4.68;;;3.15;;
19889;SDS011;10107;51.198;6.824;2023-08-24T11:42:40;3.17;;;2.88;;
19889;SDS011;10107;51.198;6.824;2023-08-24T11:46:42;4.03;;;3.15;;
19889;SDS011;10107;51.198;6.824;2023-08-24T12:04:19;3.58;;;2.95;;
19889;SDS011;10107;51.198;6.824;2023-08-24T12:12:22;5.70;;;2.80;;
19889;SDS011;10107;51.198;6.824;2023-08-24T12:16:24;4.55;;;3.00;;
19889;SDS011;10107;51.198;6.824;2023-08-24T12:20:27;6.40;;;3.22;;
19889;SDS011;10107;51.198;6.824;2023-08-24T12:24:31;6.35;;;3.22;;
19889;SDS011;10107;51.198;6.824;2023-08-24T12:28:33;5.20;;;3.20;;
19889;SDS011;10107;51.198;6.824;2023-08-24T12:32:42;4.23;;;3.10;;
19889;SDS011;10107;51.198;6.824;2023-08-24T12:36:46;6.82;;;3.58;;
19889;SDS011;10107;51.198;6.824;2023-08-24T12:44:49;5.70;;;3.50;;
19889;SDS011;10107;51.198;6.824;2023-08-24T12:48:51;5.22;;;3.30;;
19889;SDS011;10107;51.198;6.824;2023-08-24T12:52:54;4.80;;;3.15;;
19889;SDS011;10107;51.198;6.824;2023-08-24T12:56:59;5.18;;;3.60;;
19889;SDS011;10107;51.198;6.824;2023-08-24T13:01:01;4.80;;;3.10;;
19889;SDS011;10107;51.198;6.824;2023-08-24T13:05:03;4.63;;;3.30;;
19889;SDS011;10107;51.198;6.824;2023-08-24T13:09:07;4.43;;;2.97;;
19889;SDS011;10107;51.198;6.824;2023-08-24T13:13:09;4.38;;;2.97;;
19889;SDS011;10107;51.198;6.824;2023-08-24T13:17:11;5.75;;;3.50;;
19889;SDS011;10107;51.198;6.824;2023-08-24T13:21:12;5.13;;;3.17;;
19889;SDS011;10107;51.198;6.824;2023-08-24T13:25:17;5.95;;;3.35;;
19889;SDS011;10107;51.198;6.824;2023-08-24T13:29:19;6.22;;;3.45;;
19889;SDS011;10107;51.198;6.824;2023-08-24T13:33:21;5.18;;;3.22;;
19889;SDS011;10107;51.198;6.824;2023-08-24T13:37:22;6.53;;;3.15;;
19889;SDS011;10107;51.198;6.824;2023-08-24T13:41:26;5.70;;;3.60;;
19889;SDS011;10107;51.198;6.824;2023-08-24T13:45:27;7.00;;;4.72;;
19889;SDS011;10107;51.198;6.824;2023-08-24T13:49:31;7.07;;;4.60;;
19889;SDS011;10107;51.198;6.824;2023-08-24T13:53:32;8.70;;;4.25;;
19889;SDS011;10107;51.198;6.824;2023-08-24T13:57:35;6.40;;;3.63;;
19889;SDS011;10107;51.198;6.824;2023-08-24T14:01:37;7.75;;;3.50;;
19889;SDS011;10107;51.198;6.824;2023-08-24T14:05:39;6.70;;;3.92;;
19889;SDS011;10107;51.198;6.824;2023-08-24T14:09:40;4.50;;;3.22;;
19889;SDS011;10107;51.198;6.824;2023-08-24T14:13:43;4.95;;;3.13;;
19889;SDS011;10107;51.198;6.824;2023-08-24T14:17:45;7.78;;;4.63;;
19889;SDS011;10107;51.198;6.824;2023-08-24T14:21:47;8.57;;;4.18;;
19889;SDS011;10107;51.198;6.824;2023-08-24T14:25:49;6.07;;;3.95;;
19889;SDS011;10107;51.198;6.824;2023-08-24T14:29:52;6.57;;;3.63;;
19889;SDS011;10107;51.198;6.824;2023-08-24T14:33:54;6.22;;;3.83;;
19889;SDS011;10107;51.198;6.824;2023-08-24T14:37:56;7.07;;;3.90;;
19889;SDS011;10107;51.198;6.824;2023-08-24T14:41:58;8.57;;;3.88;;
19889;SDS011;10107;51.198;6.824;2023-08-24T14:46:01;7.97;;;4.07;;
19889;SDS011;10107;51.198;6.824;2023-08-24T14:50:03;6.10;;;4.22;;
19889;SDS011;10107;51.198;6.824;2023-08-24T14:54:05;8.90;;;4.13;;
19889;SDS011;10107;51.198;6.824;2023-08-24T14:58:07;6.30;;;3.67;;
19889;SDS011;10107;51.198;6.824;2023-08-24T15:02:10;5.53;;;3.20;;
19889;SDS011;10107;51.198;6.824;2023-08-24T15:06:12;12.30;;;3.65;;
19889;SDS011;10107;51.198;6.824;2023-08-24T15:10:13;4.55;;;3.40;;
19889;SDS011;10107;51.198;6.824;2023-08-24T15:14:17;5.75;;;3.50;;
19889;SDS011;10107;51.198;6.824;2023-08-24T15:18:20;6.25;;;3.20;;
19889;SDS011;10107;51.198;6.824;2023-08-24T15:22:22;5.57;;;3.35;;
19889;SDS011;10107;51.198;6.824;2023-08-24T15:26:23;9.20;;;3.40;;
19889;SDS011;10107;51.198;6.824;2023-08-24T15:30:25;6.35;;;3.25;;
19889;SDS011;10107;51.198;6.824;2023-08-24T15:34:28;4.75;;;3.15;;
19889;SDS011;10107;51.198;6.824;2023-08-24T15:38:30;6.13;;;3.20;;
19889;SDS011;10107;51.198;6.824;2023-08-24T15:42:32;7.90;;;3.45;;
19889;SDS011;10107;51.198;6.824;2023-08-24T15:46:34;5.97;;;3.20;;
19889;SDS011;10107;51.198;6.824;2023-08-24T15:50:37;5.38;;;3.42;;
19889;SDS011;10107;51.198;6.824;2023-08-24T15:54:38;6.70;;;3.22;;
19889;SDS011;10107;51.198;6.824;2023-08-24T15:58:40;4.03;;;2.92;;
19889;SDS011;10107;51.198;6.824;2023-08-24T16:02:42;7.53;;;3.30;;
19889;SDS011;10107;51.198;6.824;2023-08-24T16:06:45;5.43;;;2.90;;
19889;SDS011;10107;51.198;6.824;2023-08-24T16:10:46;8.35;;;3.20;;
19889;SDS011;10107;51.198;6.824;2023-08-24T16:14:48;5.82;;;2.90;;
19889;SDS011;10107;51.198;6.824;2023-08-24T16:18:50;3.90;;;2.75;;
19889;SDS011;10107;51.198;6.824;2023-08-24T16:22:53;5.78;;;2.40;;
19889;SDS011;10107;51.198;6.824;2023-08-24T16:26:54;4.85;;;2.28;;
19889;SDS011;10107;51.198;6.824;2023-08-24T16:30:56;4.80;;;2.70;;
19889;SDS011;10107;51.198;6.824;2023-08-24T16:34:58;6.93;;;3.03;;
19889;SDS011;10107;51.198;6.824;2023-08-24T16:39:01;3.28;;;2.35;;
19889;SDS011;10107;51.198;6.824;2023-08-24T16:43:03;4.82;;;2.58;;
19889;SDS011;10107;51.198;6.824;2023-08-24T16:47:05;5.93;;;2.92;;
19889;SDS011;10107;51.198;6.824;2023-08-24T16:51:07;6.45;;;2.30;;
19889;SDS011;10107;51.198;6.824;2023-08-24T16:55:09;5.15;;;2.25;;
19889;SDS011;10107;51.198;6.824;2023-08-24T16:59:11;4.57;;;2.55;;
19889;SDS011;10107;51.198;6.824;2023-08-24T17:03:13;3.72;;;2.50;;
19889;SDS011;10107;51.198;6.824;2023-08-24T17:07:14;4.57;;;2.28;;
19889;SDS011;10107;51.198;6.824;2023-08-24T17:11:17;3.88;;;2.47;;
19889;SDS011;10107;51.198;6.824;2023-08-24T17:15:23;5.53;;;2.90;;
19889;SDS011;10107;51.198;6.824;2023-08-24T17:19:25;4.00;;;2.80;;
19889;SDS011;10107;51.198;6.824;2023-08-24T17:23:27;4.60;;;2.45;;
19889;SDS011;10107;51.198;6.824;2023-08-24T17:27:30;4.13;;;2.60;;
19889;SDS011;10107;51.198;6.824;2023-08-24T17:31:31;3.97;;;2.50;;
19889;SDS011;10107;51.198;6.824;2023-08-24T17:35:33;4.57;;;2.65;;
19889;SDS011;10107;51.198;6.824;2023-08-24T17:39:35;4.28;;;2.70;;
19889;SDS011;10107;51.198;6.824;2023-08-24T17:43:39;5.53;;;2.40;;
19889;SDS011;10107;51.198;6.824;2023-08-24T17:47:41;3.83;;;2.60;;
19889;SDS011;10107;51.198;6.824;2023-08-24T17:51:46;4.07;;;2.60;;
19889;SDS011;10107;51.198;6.824;2023-08-24T17:55:50;4.35;;;2.67;;
19889;SDS011;10107;51.198;6.824;2023-08-24T17:59:54;5.97;;;2.78;;
19889;SDS011;10107;51.198;6.824;2023-08-24T18:03:56;5.07;;;2.53;;
19889;SDS011;10107;51.198;6.824;2023-08-24T18:07:57;4.15;;;2.67;;
19889;SDS011;10107;51.198;6.824;2023-08-24T18:11:59;3.55;;;2.38;;
19889;SDS011;10107;51.198;6.824;2023-08-24T18:16:03;6.32;;;2.72;;
19889;SDS011;10107;51.198;6.824;2023-08-24T18:20:05;4.25;;;2.40;;
19889;SDS011;10107;51.198;6.824;2023-08-24T18:24:08;4.05;;;2.53;;
19889;SDS011;10107;51.198;6.824;2023-08-24T18:28:09;3.13;;;2.50;;
19889;SDS011;10107;51.198;6.824;2023-08-24T18:32:12;6.68;;;2.63;;
19889;SDS011;10107;51.198;6.824;2023-08-24T18:36:14;4.20;;;2.63;;
19889;SDS011;10107;51.198;6.824;2023-08-24T18:40:16;5.13;;;2.75;;
19889;SDS011;10107;51.198;6.824;2023-08-24T18:44:17;3.65;;;2.47;;
19889;SDS011;10107;51.198;6.824;2023-08-24T18:48:20;5.15;;;2.67;;
19889;SDS011;10107;51.198;6.824;2023-08-24T18:52:23;4.18;;;2.53;;
19889;SDS011;10107;51.198;6.824;2023-08-24T18:56:24;4.18;;;2.90;;
19889;SDS011;10107;51.198;6.824;2023-08-24T19:00:26;4.45;;;2.83;;
19889;SDS011;10107;51.198;6.824;2023-08-24T19:04:29;7.80;;;3.42;;
19889;SDS011;10107;51.198;6.824;2023-08-24T19:08:31;4.85;;;2.97;;
19889;SDS011;10107;51.198;6.824;2023-08-24T19:12:33;5.57;;;2.63;;
19889;SDS011;10107;51.198;6.824;2023-08-24T19:16:34;5.50;;;3.00;;
19889;SDS011;10107;51.198;6.824;2023-08-24T19:20:39;3.97;;;2.80;;
19889;SDS011;10107;51.198;6.824;2023-08-24T19:24:41;4.50;;;3.08;;
19889;SDS011;10107;51.198;6.824;2023-08-24T19:28:45;4.70;;;2.70;;
19889;SDS011;10107;51.198;6.824;2023-08-24T19:32:46;3.22;;;2.50;;
19889;SDS011;10107;51.198;6.824;2023-08-24T19:36:49;2.58;;;2.28;;
19889;SDS011;10107;51.198;6.824;2023-08-24T19:40:51;4.05;;;2.95;;
19889;SDS011;10107;51.198;6.824;2023-08-24T19:44:53;4.40;;;2.88;;
19889;SDS011;10107;51.198;6.824;2023-08-24T19:48:55;5.57;;;2.75;;
19889;SDS011;10107;51.198;6.824;2023-08-24T19:52:58;4.38;;;3.10;;
19889;SDS011;10107;51.198;6.824;2023-08-24T19:57:01;4.18;;;3.10;;
19889;SDS011;10107;51.198;6.824;2023-08-24T20:01:03;5.53;;;3.50;;
19889;SDS011;10107;51.198;6.824;2023-08-24T20:05:05;4.30;;;3.03;;
19889;SDS011;10107;51.198;6.824;2023-08-24T20:09:09;5.72;;;3.13;;
19889;SDS011;10107;51.198;6.824;2023-08-24T20:13:12;4.03;;;3.15;;
19889;SDS011;10107;51.198;6.824;2023-08-24T20:17:16;4.35;;;2.95;;
19889;SDS011;10107;51.198;6.824;2023-08-24T20:21:19;4.10;;;3.20;;
19889;SDS011;10107;51.198;6.824;2023-08-24T20:25:23;4.95;;;3.60;;
19889;SDS011;10107;51.198;6.824;2023-08-24T20:29:25;5.22;;;3.40;;
19889;SDS011;10107;51.198;6.824;2023-08-24T20:33:27;5.65;;;3.72;;
19889;SDS011;10107;51.198;6.824;2023-08-24T20:37:31;4.95;;;3.90;;
19889;SDS011;10107;51.198;6.824;2023-08-24T20:41:35;4.60;;;3.60;;
19889;SDS011;10107;51.198;6.824;2023-08-24T20:45:37;3.35;;;2.88;;
19889;SDS011;10107;51.198;6.824;2023-08-24T20:49:43;4.53;;;3.75;;
19889;SDS011;10107;51.198;6.824;2023-08-24T20:53:50;5.95;;;4.15;;
19889;SDS011;10107;51.198;6.824;2023-08-24T20:57:53;4.15;;;3.67;;
19889;SDS011;10107;51.198;6.824;2023-08-24T21:01:58;6.47;;;4.03;;
19889;SDS011;10107;51.198;6.824;2023-08-24T21:06:01;5.88;;;3.85;;
19889;SDS011;10107;51.198;6.824;2023-08-24T21:10:04;5.78;;;3.92;;
19889;SDS011;10107;51.198;6.824;2023-08-24T21:14:08;4.50;;;3.35;;
19889;SDS011;10107;51.198;6.824;2023-08-24T21:18:11;4.57;;;3.28;;
19889;SDS011;10107;51.198;6.824;2023-08-24T21:22:13;7.82;;;3.63;;
19889;SDS011;10107;51.198;6.824;2023-08-24T21:26:14;5.18;;;3.55;;
19889;SDS011;10107;51.198;6.824;2023-08-24T21:30:18;6.18;;;3.85;;
19889;SDS011;10107;51.198;6.824;2023-08-24T21:38:22;4.45;;;3.35;;
19889;SDS011;10107;51.198;6.824;2023-08-24T21:42:23;5.15;;;3.47;;
19889;SDS011;10107;51.198;6.824;2023-08-24T21:46:27;5.60;;;3.50;;
19889;SDS011;10107;51.198;6.824;2023-08-24T21:50:28;4.32;;;3.50;;
19889;SDS011;10107;51.198;6.824;2023-08-24T21:54:34;3.90;;;3.35;;
19889;SDS011;10107;51.198;6.824;2023-08-24T21:58:36;6.88;;;3.80;;
19889;SDS011;10107;51.198;6.824;2023-08-24T22:02:39;5.03;;;4.00;;
19889;SDS011;10107;51.198;6.824;2023-08-24T22:06:41;4.90;;;3.63;;
19889;SDS011;10107;51.198;6.824;2023-08-24T22:10:44;5.87;;;3.60;;
19889;SDS011;10107;51.198;6.824;2023-08-24T22:14:46;4.93;;;3.75;;
19889;SDS011;10107;51.198;6.824;2023-08-24T22:18:48;4.65;;;3.80;;
19889;SDS011;10107;51.198;6.824;2023-08-24T22:22:50;5.18;;;3.63;;
19889;SDS011;10107;51.198;6.824;2023-08-24T22:26:52;4.50;;;3.50;;
19889;SDS011;10107;51.198;6.824;2023-08-24T22:30:53;6.55;;;4.18;;
19889;SDS011;10107;51.198;6.824;2023-08-24T22:34:56;4.38;;;3.80;;
19889;SDS011;10107;51.198;6.824;2023-08-24T22:38:58;4.85;;;3.80;;
19889;SDS011;10107;51.198;6.824;2023-08-24T22:43:00;6.30;;;3.90;;
19889;SDS011;10107;51.198;6.824;2023-08-24T22:47:02;6.35;;;3.47;;
19889;SDS011;10107;51.198;6.824;2023-08-24T22:51:05;4.82;;;3.88;;
19889;SDS011;10107;51.198;6.824;2023-08-24T22:55:07;5.07;;;3.90;;
19889;SDS011;10107;51.198;6.824;2023-08-24T23:03:12;7.18;;;4.30;;
19889;SDS011;10107;51.198;6.824;2023-08-24T23:07:15;5.00;;;4.00;;
19889;SDS011;10107;51.198;6.824;2023-08-24T23:11:17;6.35;;;4.00;;
19889;SDS011;10107;51.198;6.824;2023-08-24T23:15:19;6.10;;;4.30;;
19889;SDS011;10107;51.198;6.824;2023-08-24T23:19:21;5.60;;;4.13;;
19889;SDS011;10107;51.198;6.824;2023-08-24T23:23:24;4.30;;;3.65;;
19889;SDS011;10107;51.198;6.824;2023-08-24T23:31:28;4.68;;;3.65;;
19889;SDS011;10107;51.198;6.824;2023-08-24T23:35:29;4.45;;;3.85;;
19889;SDS011;10107;51.198;6.824;2023-08-24T23:39:33;4.85;;;3.95;;
19889;SDS011;10107;51.198;6.824;2023-08-24T23:43:35;5.20;;;3.90;;
19889;SDS011;10107;51.198;6.824;2023-08-24T23:47:37;6.13;;;4.28;;
19889;SDS011;10107;51.198;6.824;2023-08-24T23:51:39;6.78;;;4.40;;
19889;SDS011;10107;51.198;6.824;2023-08-24T23:55:42;5.43;;;4.38;;
19889;SDS011;10107;51.198;6.824;2023-08-24T23:59:43;4.57;;;3.58;;
